Terminal Aerodrome Forecast
Issued by NWS Wilmington, NC

Home | Current Version | Previous Version | Text Only | Print | Product List | Glossary On
Versions: 1 2 3 4 5 6 7 8 9 10 11 12 13 14 15 16 17 18 19 20
610
FTUS42 KILM 301125
TAFILM
TAF
KILM 301125Z 3012/0112 05006KT P6SM SCT008 BKN018
     FM301600 10008KT P6SM BKN025
     FM010100 11006KT P6SM OVC012
     FM010300 09004KT 4SM BR OVC007
     FM011000 17005KT P6SM BKN012=

USA.gov is the U.S. government's official web portal to all federal, state and local government web resources and services.